sensor_id;sensor_type;location;lat;lon;timestamp;P1;durP1;ratioP1;P2;durP2;ratioP2
52386;SDS011;38317;53.084;6.960;2023-05-10T00:00:12;9.80;;;6.00;;
52386;SDS011;38317;53.084;6.960;2023-05-10T00:02:38;9.70;;;5.75;;
52386;SDS011;38317;53.084;6.960;2023-05-10T00:05:05;9.27;;;5.78;;
52386;SDS011;38317;53.084;6.960;2023-05-10T00:07:31;11.13;;;6.53;;
52386;SDS011;38317;53.084;6.960;2023-05-10T00:09:57;9.63;;;6.05;;
52386;SDS011;38317;53.084;6.960;2023-05-10T00:12:23;10.27;;;6.40;;
52386;SDS011;38317;53.084;6.960;2023-05-10T00:14:49;10.13;;;6.20;;
52386;SDS011;38317;53.084;6.960;2023-05-10T00:17:14;9.32;;;5.93;;
52386;SDS011;38317;53.084;6.960;2023-05-10T00:19:40;8.95;;;5.55;;
52386;SDS011;38317;53.084;6.960;2023-05-10T00:22:06;6.25;;;3.80;;
52386;SDS011;38317;53.084;6.960;2023-05-10T00:24:31;5.97;;;3.53;;
52386;SDS011;38317;53.084;6.960;2023-05-10T00:26:57;5.22;;;3.10;;
52386;SDS011;38317;53.084;6.960;2023-05-10T00:29:23;6.20;;;3.58;;
52386;SDS011;38317;53.084;6.960;2023-05-10T00:31:49;5.88;;;3.70;;
52386;SDS011;38317;53.084;6.960;2023-05-10T00:34:14;5.93;;;3.22;;
52386;SDS011;38317;53.084;6.960;2023-05-10T00:36:40;5.40;;;3.22;;
52386;SDS011;38317;53.084;6.960;2023-05-10T00:39:06;5.50;;;3.40;;
52386;SDS011;38317;53.084;6.960;2023-05-10T00:41:32;5.47;;;3.38;;
52386;SDS011;38317;53.084;6.960;2023-05-10T00:43:58;5.90;;;3.78;;
52386;SDS011;38317;53.084;6.960;2023-05-10T00:46:24;5.85;;;3.63;;
52386;SDS011;38317;53.084;6.960;2023-05-10T00:48:50;5.10;;;3.45;;
52386;SDS011;38317;53.084;6.960;2023-05-10T00:51:17;5.80;;;3.45;;
52386;SDS011;38317;53.084;6.960;2023-05-10T00:53:44;5.97;;;3.75;;
52386;SDS011;38317;53.084;6.960;2023-05-10T00:56:11;5.20;;;3.25;;
52386;SDS011;38317;53.084;6.960;2023-05-10T00:58:37;5.05;;;3.20;;
52386;SDS011;38317;53.084;6.960;2023-05-10T01:01:04;5.90;;;3.38;;
52386;SDS011;38317;53.084;6.960;2023-05-10T01:03:31;4.90;;;2.95;;
52386;SDS011;38317;53.084;6.960;2023-05-10T01:05:57;6.20;;;3.40;;
52386;SDS011;38317;53.084;6.960;2023-05-10T01:08:23;5.53;;;3.47;;
52386;SDS011;38317;53.084;6.960;2023-05-10T01:10:50;5.80;;;3.42;;
52386;SDS011;38317;53.084;6.960;2023-05-10T01:13:39;6.50;;;3.58;;
52386;SDS011;38317;53.084;6.960;2023-05-10T01:16:06;5.97;;;3.58;;
52386;SDS011;38317;53.084;6.960;2023-05-10T01:18:36;6.82;;;4.13;;
52386;SDS011;38317;53.084;6.960;2023-05-10T01:29:47;7.32;;;4.00;;
52386;SDS011;38317;53.084;6.960;2023-05-10T01:35:25;7.30;;;4.13;;
52386;SDS011;38317;53.084;6.960;2023-05-10T01:38:05;7.63;;;4.22;;
52386;SDS011;38317;53.084;6.960;2023-05-10T01:41:03;7.25;;;4.50;;
52386;SDS011;38317;53.084;6.960;2023-05-10T01:43:46;7.60;;;4.40;;
52386;SDS011;38317;53.084;6.960;2023-05-10T01:46:37;6.50;;;4.05;;
52386;SDS011;38317;53.084;6.960;2023-05-10T01:49:08;6.50;;;4.07;;
52386;SDS011;38317;53.084;6.960;2023-05-10T01:51:45;6.63;;;3.90;;
52386;SDS011;38317;53.084;6.960;2023-05-10T01:54:17;6.80;;;3.88;;
52386;SDS011;38317;53.084;6.960;2023-05-10T01:56:45;6.45;;;3.95;;
52386;SDS011;38317;53.084;6.960;2023-05-10T01:59:16;6.97;;;3.88;;
52386;SDS011;38317;53.084;6.960;2023-05-10T02:01:44;7.20;;;3.83;;
52386;SDS011;38317;53.084;6.960;2023-05-10T02:04:13;6.70;;;4.20;;
52386;SDS011;38317;53.084;6.960;2023-05-10T02:06:49;7.85;;;3.97;;
52386;SDS011;38317;53.084;6.960;2023-05-10T02:09:17;7.28;;;4.10;;
52386;SDS011;38317;53.084;6.960;2023-05-10T02:11:45;6.93;;;4.18;;
52386;SDS011;38317;53.084;6.960;2023-05-10T02:14:14;9.32;;;4.50;;
52386;SDS011;38317;53.084;6.960;2023-05-10T02:16:42;7.95;;;4.82;;
52386;SDS011;38317;53.084;6.960;2023-05-10T02:19:09;7.03;;;4.32;;
52386;SDS011;38317;53.084;6.960;2023-05-10T02:21:37;7.18;;;4.20;;
52386;SDS011;38317;53.084;6.960;2023-05-10T02:24:04;7.65;;;4.38;;
52386;SDS011;38317;53.084;6.960;2023-05-10T02:26:32;6.45;;;3.88;;
52386;SDS011;38317;53.084;6.960;2023-05-10T02:29:00;7.55;;;4.05;;
52386;SDS011;38317;53.084;6.960;2023-05-10T02:31:28;7.18;;;4.28;;
52386;SDS011;38317;53.084;6.960;2023-05-10T02:33:57;10.05;;;4.40;;
52386;SDS011;38317;53.084;6.960;2023-05-10T02:36:24;8.63;;;4.70;;
52386;SDS011;38317;53.084;6.960;2023-05-10T02:38:52;8.50;;;4.72;;
52386;SDS011;38317;53.084;6.960;2023-05-10T02:41:19;7.32;;;4.18;;
52386;SDS011;38317;53.084;6.960;2023-05-10T02:43:49;7.00;;;3.95;;
52386;SDS011;38317;53.084;6.960;2023-05-10T02:46:17;6.78;;;3.90;;
52386;SDS011;38317;53.084;6.960;2023-05-10T02:48:43;6.68;;;3.88;;
52386;SDS011;38317;53.084;6.960;2023-05-10T02:51:08;6.78;;;4.18;;
52386;SDS011;38317;53.084;6.960;2023-05-10T02:53:42;7.10;;;4.30;;
52386;SDS011;38317;53.084;6.960;2023-05-10T02:56:15;10.48;;;4.82;;
52386;SDS011;38317;53.084;6.960;2023-05-10T02:58:59;7.55;;;4.15;;
52386;SDS011;38317;53.084;6.960;2023-05-10T03:01:25;7.00;;;3.92;;
52386;SDS011;38317;53.084;6.960;2023-05-10T03:03:50;7.88;;;4.63;;
52386;SDS011;38317;53.084;6.960;2023-05-10T03:06:16;7.57;;;4.30;;
52386;SDS011;38317;53.084;6.960;2023-05-10T03:08:42;6.80;;;4.00;;
52386;SDS011;38317;53.084;6.960;2023-05-10T03:11:25;7.10;;;4.18;;
52386;SDS011;38317;53.084;6.960;2023-05-10T03:16:56;9.15;;;4.50;;
52386;SDS011;38317;53.084;6.960;2023-05-10T03:21:58;7.70;;;4.70;;
52386;SDS011;38317;53.084;6.960;2023-05-10T03:24:28;9.73;;;4.78;;
52386;SDS011;38317;53.084;6.960;2023-05-10T03:26:56;8.02;;;4.32;;
52386;SDS011;38317;53.084;6.960;2023-05-10T03:29:27;8.15;;;4.78;;
52386;SDS011;38317;53.084;6.960;2023-05-10T03:31:54;7.97;;;4.60;;
52386;SDS011;38317;53.084;6.960;2023-05-10T03:34:23;7.88;;;4.68;;
52386;SDS011;38317;53.084;6.960;2023-05-10T03:36:49;10.55;;;4.93;;
52386;SDS011;38317;53.084;6.960;2023-05-10T03:39:15;8.70;;;4.80;;
52386;SDS011;38317;53.084;6.960;2023-05-10T03:41:41;8.98;;;5.18;;
52386;SDS011;38317;53.084;6.960;2023-05-10T03:44:10;10.50;;;5.28;;
52386;SDS011;38317;53.084;6.960;2023-05-10T03:46:36;8.35;;;4.72;;
52386;SDS011;38317;53.084;6.960;2023-05-10T03:49:01;9.90;;;5.32;;
52386;SDS011;38317;53.084;6.960;2023-05-10T03:51:27;9.18;;;5.10;;
52386;SDS011;38317;53.084;6.960;2023-05-10T03:53:53;9.90;;;5.13;;
52386;SDS011;38317;53.084;6.960;2023-05-10T03:56:20;9.88;;;5.25;;
52386;SDS011;38317;53.084;6.960;2023-05-10T03:58:46;9.98;;;5.40;;
52386;SDS011;38317;53.084;6.960;2023-05-10T04:01:12;9.43;;;5.28;;
52386;SDS011;38317;53.084;6.960;2023-05-10T04:03:37;10.32;;;5.63;;
52386;SDS011;38317;53.084;6.960;2023-05-10T04:06:03;10.88;;;5.72;;
52386;SDS011;38317;53.084;6.960;2023-05-10T04:08:30;11.55;;;6.03;;
52386;SDS011;38317;53.084;6.960;2023-05-10T04:11:09;11.27;;;5.53;;
52386;SDS011;38317;53.084;6.960;2023-05-10T04:13:37;10.00;;;5.55;;
52386;SDS011;38317;53.084;6.960;2023-05-10T04:16:03;10.35;;;5.35;;
52386;SDS011;38317;53.084;6.960;2023-05-10T04:18:29;9.77;;;5.47;;
52386;SDS011;38317;53.084;6.960;2023-05-10T04:20:55;11.02;;;5.57;;
52386;SDS011;38317;53.084;6.960;2023-05-10T04:23:21;11.02;;;6.53;;
52386;SDS011;38317;53.084;6.960;2023-05-10T04:25:47;11.68;;;6.35;;
52386;SDS011;38317;53.084;6.960;2023-05-10T04:28:12;12.10;;;6.68;;
52386;SDS011;38317;53.084;6.960;2023-05-10T04:30:38;11.20;;;5.70;;
52386;SDS011;38317;53.084;6.960;2023-05-10T04:33:04;12.05;;;6.25;;
52386;SDS011;38317;53.084;6.960;2023-05-10T04:35:29;10.77;;;5.85;;
52386;SDS011;38317;53.084;6.960;2023-05-10T04:37:55;12.25;;;7.07;;
52386;SDS011;38317;53.084;6.960;2023-05-10T04:40:21;11.93;;;6.35;;
52386;SDS011;38317;53.084;6.960;2023-05-10T04:42:46;11.30;;;6.25;;
52386;SDS011;38317;53.084;6.960;2023-05-10T04:45:12;12.52;;;6.72;;
52386;SDS011;38317;53.084;6.960;2023-05-10T04:47:39;9.57;;;5.40;;
52386;SDS011;38317;53.084;6.960;2023-05-10T04:50:05;9.32;;;5.47;;
52386;SDS011;38317;53.084;6.960;2023-05-10T04:52:32;9.82;;;5.63;;
52386;SDS011;38317;53.084;6.960;2023-05-10T04:54:58;9.27;;;4.97;;
52386;SDS011;38317;53.084;6.960;2023-05-10T04:57:23;9.10;;;5.20;;
52386;SDS011;38317;53.084;6.960;2023-05-10T04:59:49;8.88;;;4.75;;
52386;SDS011;38317;53.084;6.960;2023-05-10T05:02:15;10.07;;;5.22;;
52386;SDS011;38317;53.084;6.960;2023-05-10T05:04:41;8.32;;;4.88;;
52386;SDS011;38317;53.084;6.960;2023-05-10T05:07:06;9.45;;;5.35;;
52386;SDS011;38317;53.084;6.960;2023-05-10T05:09:32;9.07;;;4.57;;
52386;SDS011;38317;53.084;6.960;2023-05-10T05:11:58;8.68;;;4.72;;
52386;SDS011;38317;53.084;6.960;2023-05-10T05:14:23;7.75;;;4.15;;
52386;SDS011;38317;53.084;6.960;2023-05-10T05:16:52;7.25;;;4.32;;
52386;SDS011;38317;53.084;6.960;2023-05-10T05:19:18;7.57;;;4.50;;
52386;SDS011;38317;53.084;6.960;2023-05-10T05:21:43;6.80;;;3.70;;
52386;SDS011;38317;53.084;6.960;2023-05-10T05:24:10;7.13;;;4.00;;
52386;SDS011;38317;53.084;6.960;2023-05-10T05:26:37;5.93;;;3.38;;
52386;SDS011;38317;53.084;6.960;2023-05-10T05:29:03;6.38;;;3.97;;
52386;SDS011;38317;53.084;6.960;2023-05-10T05:31:29;8.77;;;3.92;;
52386;SDS011;38317;53.084;6.960;2023-05-10T05:33:55;5.82;;;3.22;;
52386;SDS011;38317;53.084;6.960;2023-05-10T05:36:21;6.90;;;4.15;;
52386;SDS011;38317;53.084;6.960;2023-05-10T05:38:47;6.78;;;3.70;;
52386;SDS011;38317;53.084;6.960;2023-05-10T05:41:12;5.65;;;3.50;;
52386;SDS011;38317;53.084;6.960;2023-05-10T05:43:38;6.85;;;3.40;;
52386;SDS011;38317;53.084;6.960;2023-05-10T05:46:04;6.00;;;3.28;;
52386;SDS011;38317;53.084;6.960;2023-05-10T05:48:30;6.45;;;3.50;;
52386;SDS011;38317;53.084;6.960;2023-05-10T05:50:56;5.43;;;3.20;;
52386;SDS011;38317;53.084;6.960;2023-05-10T05:53:22;6.60;;;3.58;;
52386;SDS011;38317;53.084;6.960;2023-05-10T05:55:52;4.82;;;3.08;;
52386;SDS011;38317;53.084;6.960;2023-05-10T05:58:18;5.50;;;3.28;;
52386;SDS011;38317;53.084;6.960;2023-05-10T06:00:44;5.00;;;3.13;;
52386;SDS011;38317;53.084;6.960;2023-05-10T06:03:10;5.80;;;3.15;;
52386;SDS011;38317;53.084;6.960;2023-05-10T06:05:36;3.90;;;2.63;;
52386;SDS011;38317;53.084;6.960;2023-05-10T06:08:01;4.93;;;2.97;;
52386;SDS011;38317;53.084;6.960;2023-05-10T06:10:27;4.70;;;2.42;;
52386;SDS011;38317;53.084;6.960;2023-05-10T06:12:53;3.47;;;2.30;;
52386;SDS011;38317;53.084;6.960;2023-05-10T06:15:19;3.38;;;2.28;;
52386;SDS011;38317;53.084;6.960;2023-05-10T06:17:44;3.35;;;2.15;;
52386;SDS011;38317;53.084;6.960;2023-05-10T06:20:12;4.80;;;2.10;;
52386;SDS011;38317;53.084;6.960;2023-05-10T06:22:38;4.40;;;2.55;;
52386;SDS011;38317;53.084;6.960;2023-05-10T06:25:04;3.83;;;2.28;;
52386;SDS011;38317;53.084;6.960;2023-05-10T06:27:30;2.78;;;1.80;;
52386;SDS011;38317;53.084;6.960;2023-05-10T06:29:55;3.72;;;1.65;;
52386;SDS011;38317;53.084;6.960;2023-05-10T06:32:21;2.42;;;1.60;;
52386;SDS011;38317;53.084;6.960;2023-05-10T06:34:47;2.28;;;1.60;;
52386;SDS011;38317;53.084;6.960;2023-05-10T06:37:12;2.85;;;1.42;;
52386;SDS011;38317;53.084;6.960;2023-05-10T06:39:38;2.15;;;1.35;;
52386;SDS011;38317;53.084;6.960;2023-05-10T06:42:04;3.30;;;1.60;;
52386;SDS011;38317;53.084;6.960;2023-05-10T06:44:30;1.92;;;1.30;;
52386;SDS011;38317;53.084;6.960;2023-05-10T06:46:55;2.88;;;1.65;;
52386;SDS011;38317;53.084;6.960;2023-05-10T06:49:21;2.40;;;1.55;;
52386;SDS011;38317;53.084;6.960;2023-05-10T06:51:47;1.70;;;1.20;;
52386;SDS011;38317;53.084;6.960;2023-05-10T06:54:13;4.03;;;1.75;;
52386;SDS011;38317;53.084;6.960;2023-05-10T06:56:39;1.48;;;0.95;;
52386;SDS011;38317;53.084;6.960;2023-05-10T06:59:05;1.10;;;0.82;;
52386;SDS011;38317;53.084;6.960;2023-05-10T07:01:30;1.05;;;0.70;;
52386;SDS011;38317;53.084;6.960;2023-05-10T07:03:56;0.95;;;0.60;;
52386;SDS011;38317;53.084;6.960;2023-05-10T07:06:22;1.27;;;0.50;;
52386;SDS011;38317;53.084;6.960;2023-05-10T07:08:47;1.38;;;0.40;;
52386;SDS011;38317;53.084;6.960;2023-05-10T07:11:13;0.95;;;0.30;;
52386;SDS011;38317;53.084;6.960;2023-05-10T07:13:39;0.70;;;0.30;;
52386;SDS011;38317;53.084;6.960;2023-05-10T07:16:06;0.98;;;0.38;;
52386;SDS011;38317;53.084;6.960;2023-05-10T07:18:32;1.00;;;0.40;;
52386;SDS011;38317;53.084;6.960;2023-05-10T07:20:58;0.50;;;0.20;;
52386;SDS011;38317;53.084;6.960;2023-05-10T07:23:24;1.30;;;0.32;;
52386;SDS011;38317;53.084;6.960;2023-05-10T07:25:50;1.77;;;0.40;;
52386;SDS011;38317;53.084;6.960;2023-05-10T07:28:17;0.80;;;0.40;;
52386;SDS011;38317;53.084;6.960;2023-05-10T07:30:43;0.90;;;0.47;;
52386;SDS011;38317;53.084;6.960;2023-05-10T07:33:09;2.03;;;0.70;;
52386;SDS011;38317;53.084;6.960;2023-05-10T07:35:36;2.67;;;0.93;;
52386;SDS011;38317;53.084;6.960;2023-05-10T07:38:02;2.72;;;1.23;;
52386;SDS011;38317;53.084;6.960;2023-05-10T07:40:28;4.05;;;1.50;;
52386;SDS011;38317;53.084;6.960;2023-05-10T07:42:54;3.53;;;1.55;;
52386;SDS011;38317;53.084;6.960;2023-05-10T07:45:20;2.83;;;1.27;;
52386;SDS011;38317;53.084;6.960;2023-05-10T07:47:46;3.03;;;1.35;;
52386;SDS011;38317;53.084;6.960;2023-05-10T07:50:12;3.38;;;1.55;;
52386;SDS011;38317;53.084;6.960;2023-05-10T07:52:37;3.17;;;1.70;;
52386;SDS011;38317;53.084;6.960;2023-05-10T07:55:03;2.83;;;1.30;;
52386;SDS011;38317;53.084;6.960;2023-05-10T07:57:29;3.30;;;0.95;;
52386;SDS011;38317;53.084;6.960;2023-05-10T07:59:55;2.83;;;1.00;;
52386;SDS011;38317;53.084;6.960;2023-05-10T08:02:21;1.60;;;0.70;;
52386;SDS011;38317;53.084;6.960;2023-05-10T08:04:47;1.35;;;0.70;;
52386;SDS011;38317;53.084;6.960;2023-05-10T08:07:12;0.93;;;0.50;;
52386;SDS011;38317;53.084;6.960;2023-05-10T08:09:38;0.75;;;0.50;;
52386;SDS011;38317;53.084;6.960;2023-05-10T08:12:04;0.82;;;0.32;;
52386;SDS011;38317;53.084;6.960;2023-05-10T08:14:30;0.80;;;0.50;;
52386;SDS011;38317;53.084;6.960;2023-05-10T08:16:56;1.25;;;0.60;;
52386;SDS011;38317;53.084;6.960;2023-05-10T08:19:21;1.30;;;0.60;;
52386;SDS011;38317;53.084;6.960;2023-05-10T08:21:47;0.77;;;0.40;;
52386;SDS011;38317;53.084;6.960;2023-05-10T08:24:13;0.70;;;0.47;;
52386;SDS011;38317;53.084;6.960;2023-05-10T08:26:40;0.70;;;0.47;;
52386;SDS011;38317;53.084;6.960;2023-05-10T08:29:05;0.80;;;0.55;;
52386;SDS011;38317;53.084;6.960;2023-05-10T08:31:31;1.30;;;0.70;;
52386;SDS011;38317;53.084;6.960;2023-05-10T08:33:57;1.35;;;0.63;;
52386;SDS011;38317;53.084;6.960;2023-05-10T08:36:22;0.93;;;0.60;;
52386;SDS011;38317;53.084;6.960;2023-05-10T08:38:52;0.88;;;0.52;;
52386;SDS011;38317;53.084;6.960;2023-05-10T08:41:19;1.95;;;0.93;;
52386;SDS011;38317;53.084;6.960;2023-05-10T08:43:46;1.95;;;1.00;;
52386;SDS011;38317;53.084;6.960;2023-05-10T08:46:16;1.77;;;1.02;;
52386;SDS011;38317;53.084;6.960;2023-05-10T08:48:43;1.65;;;1.08;;
52386;SDS011;38317;53.084;6.960;2023-05-10T08:51:11;2.88;;;1.33;;
52386;SDS011;38317;53.084;6.960;2023-05-10T08:53:39;2.35;;;1.20;;
52386;SDS011;38317;53.084;6.960;2023-05-10T08:56:05;2.67;;;1.48;;
52386;SDS011;38317;53.084;6.960;2023-05-10T08:58:31;1.92;;;1.27;;
52386;SDS011;38317;53.084;6.960;2023-05-10T09:00:57;2.47;;;1.70;;
52386;SDS011;38317;53.084;6.960;2023-05-10T09:03:24;3.03;;;1.70;;
52386;SDS011;38317;53.084;6.960;2023-05-10T09:05:50;2.28;;;1.38;;
52386;SDS011;38317;53.084;6.960;2023-05-10T09:08:15;3.60;;;1.90;;
52386;SDS011;38317;53.084;6.960;2023-05-10T09:10:45;3.00;;;1.70;;
52386;SDS011;38317;53.084;6.960;2023-05-10T09:13:14;2.75;;;1.70;;
52386;SDS011;38317;53.084;6.960;2023-05-10T09:15:43;3.53;;;2.00;;
52386;SDS011;38317;53.084;6.960;2023-05-10T09:18:10;3.08;;;1.70;;
52386;SDS011;38317;53.084;6.960;2023-05-10T09:20:36;4.55;;;1.80;;
52386;SDS011;38317;53.084;6.960;2023-05-10T09:23:02;3.45;;;1.80;;
52386;SDS011;38317;53.084;6.960;2023-05-10T09:25:27;2.17;;;1.55;;
52386;SDS011;38317;53.084;6.960;2023-05-10T09:27:53;3.17;;;1.85;;
52386;SDS011;38317;53.084;6.960;2023-05-10T09:30:24;4.00;;;2.20;;
52386;SDS011;38317;53.084;6.960;2023-05-10T09:32:51;3.05;;;1.92;;
52386;SDS011;38317;53.084;6.960;2023-05-10T09:35:21;4.60;;;2.25;;
52386;SDS011;38317;53.084;6.960;2023-05-10T09:37:50;4.32;;;2.30;;
52386;SDS011;38317;53.084;6.960;2023-05-10T09:40:19;3.63;;;2.15;;
52386;SDS011;38317;53.084;6.960;2023-05-10T09:45:23;3.47;;;2.17;;
52386;SDS011;38317;53.084;6.960;2023-05-10T09:47:50;3.35;;;1.92;;
52386;SDS011;38317;53.084;6.960;2023-05-10T09:50:16;3.13;;;1.80;;
52386;SDS011;38317;53.084;6.960;2023-05-10T09:52:46;3.70;;;2.10;;
52386;SDS011;38317;53.084;6.960;2023-05-10T09:55:17;5.45;;;2.13;;
52386;SDS011;38317;53.084;6.960;2023-05-10T09:57:45;2.95;;;1.92;;
52386;SDS011;38317;53.084;6.960;2023-05-10T10:00:16;3.45;;;2.05;;
52386;SDS011;38317;53.084;6.960;2023-05-10T10:05:13;3.47;;;1.90;;
52386;SDS011;38317;53.084;6.960;2023-05-10T10:07:39;2.47;;;1.65;;
52386;SDS011;38317;53.084;6.960;2023-05-10T10:10:05;4.05;;;2.15;;
52386;SDS011;38317;53.084;6.960;2023-05-10T10:12:36;5.43;;;2.60;;
52386;SDS011;38317;53.084;6.960;2023-05-10T10:15:02;4.80;;;2.47;;
52386;SDS011;38317;53.084;6.960;2023-05-10T10:17:29;5.55;;;2.80;;
52386;SDS011;38317;53.084;6.960;2023-05-10T10:19:57;5.68;;;2.53;;
52386;SDS011;38317;53.084;6.960;2023-05-10T10:22:23;4.82;;;2.70;;
52386;SDS011;38317;53.084;6.960;2023-05-10T10:24:49;5.80;;;2.65;;
52386;SDS011;38317;53.084;6.960;2023-05-10T10:29:59;3.90;;;2.60;;
52386;SDS011;38317;53.084;6.960;2023-05-10T10:35:16;4.65;;;2.80;;
52386;SDS011;38317;53.084;6.960;2023-05-10T10:37:43;5.85;;;2.95;;
52386;SDS011;38317;53.084;6.960;2023-05-10T10:48:40;5.85;;;3.00;;
52386;SDS011;38317;53.084;6.960;2023-05-10T10:51:12;4.95;;;3.10;;
52386;SDS011;38317;53.084;6.960;2023-05-10T10:53:39;3.97;;;2.33;;
52386;SDS011;38317;53.084;6.960;2023-05-10T10:56:12;4.38;;;2.42;;
52386;SDS011;38317;53.084;6.960;2023-05-10T10:58:40;4.95;;;2.88;;
52386;SDS011;38317;53.084;6.960;2023-05-10T11:01:39;4.93;;;2.80;;
52386;SDS011;38317;53.084;6.960;2023-05-10T11:06:32;4.05;;;2.10;;
52386;SDS011;38317;53.084;6.960;2023-05-10T11:09:09;5.22;;;2.17;;
52386;SDS011;38317;53.084;6.960;2023-05-10T11:11:48;4.88;;;2.33;;
52386;SDS011;38317;53.084;6.960;2023-05-10T11:14:18;4.78;;;2.47;;
52386;SDS011;38317;53.084;6.960;2023-05-10T11:16:45;4.68;;;2.33;;
52386;SDS011;38317;53.084;6.960;2023-05-10T11:19:11;4.55;;;2.40;;
52386;SDS011;38317;53.084;6.960;2023-05-10T11:24:28;4.88;;;2.70;;
52386;SDS011;38317;53.084;6.960;2023-05-10T11:26:54;5.22;;;2.85;;
52386;SDS011;38317;53.084;6.960;2023-05-10T11:29:21;4.93;;;2.38;;
52386;SDS011;38317;53.084;6.960;2023-05-10T11:31:48;4.05;;;2.33;;
52386;SDS011;38317;53.084;6.960;2023-05-10T11:34:28;4.78;;;2.50;;
52386;SDS011;38317;53.084;6.960;2023-05-10T11:37:03;4.43;;;2.53;;
52386;SDS011;38317;53.084;6.960;2023-05-10T11:39:30;4.35;;;2.50;;
52386;SDS011;38317;53.084;6.960;2023-05-10T11:41:57;5.20;;;2.80;;
52386;SDS011;38317;53.084;6.960;2023-05-10T11:44:23;5.10;;;2.63;;
52386;SDS011;38317;53.084;6.960;2023-05-10T11:46:59;5.10;;;2.40;;
52386;SDS011;38317;53.084;6.960;2023-05-10T11:49:28;5.25;;;2.45;;
52386;SDS011;38317;53.084;6.960;2023-05-10T11:52:03;6.55;;;2.58;;
52386;SDS011;38317;53.084;6.960;2023-05-10T11:54:30;4.07;;;2.17;;
52386;SDS011;38317;53.084;6.960;2023-05-10T11:56:56;6.53;;;3.10;;
52386;SDS011;38317;53.084;6.960;2023-05-10T11:59:21;6.78;;;3.03;;
52386;SDS011;38317;53.084;6.960;2023-05-10T12:01:47;4.72;;;2.65;;
52386;SDS011;38317;53.084;6.960;2023-05-10T12:04:13;5.78;;;3.08;;
52386;SDS011;38317;53.084;6.960;2023-05-10T12:06:40;6.07;;;2.72;;
52386;SDS011;38317;53.084;6.960;2023-05-10T12:09:06;6.97;;;3.45;;
52386;SDS011;38317;53.084;6.960;2023-05-10T12:11:35;7.07;;;3.45;;
52386;SDS011;38317;53.084;6.960;2023-05-10T12:14:04;5.95;;;2.53;;
52386;SDS011;38317;53.084;6.960;2023-05-10T12:16:30;5.13;;;2.70;;
52386;SDS011;38317;53.084;6.960;2023-05-10T12:18:56;6.82;;;2.85;;
52386;SDS011;38317;53.084;6.960;2023-05-10T12:21:23;6.05;;;3.10;;
52386;SDS011;38317;53.084;6.960;2023-05-10T12:23:50;7.05;;;3.00;;
52386;SDS011;38317;53.084;6.960;2023-05-10T12:26:17;6.57;;;3.15;;
52386;SDS011;38317;53.084;6.960;2023-05-10T12:28:43;5.15;;;2.80;;
52386;SDS011;38317;53.084;6.960;2023-05-10T12:31:09;4.80;;;2.72;;
52386;SDS011;38317;53.084;6.960;2023-05-10T12:33:39;5.93;;;2.97;;
52386;SDS011;38317;53.084;6.960;2023-05-10T12:36:10;6.60;;;3.40;;
52386;SDS011;38317;53.084;6.960;2023-05-10T12:38:38;6.63;;;3.17;;
52386;SDS011;38317;53.084;6.960;2023-05-10T12:41:17;5.93;;;3.00;;
52386;SDS011;38317;53.084;6.960;2023-05-10T12:43:43;5.38;;;2.30;;
52386;SDS011;38317;53.084;6.960;2023-05-10T12:46:16;4.70;;;2.40;;
52386;SDS011;38317;53.084;6.960;2023-05-10T12:48:43;6.38;;;2.47;;
52386;SDS011;38317;53.084;6.960;2023-05-10T12:51:11;6.53;;;3.28;;
52386;SDS011;38317;53.084;6.960;2023-05-10T12:53:40;5.65;;;3.00;;
52386;SDS011;38317;53.084;6.960;2023-05-10T12:56:06;6.07;;;2.80;;
52386;SDS011;38317;53.084;6.960;2023-05-10T12:58:32;6.40;;;2.95;;
52386;SDS011;38317;53.084;6.960;2023-05-10T13:00:57;5.30;;;2.83;;
52386;SDS011;38317;53.084;6.960;2023-05-10T13:03:27;5.47;;;2.90;;
52386;SDS011;38317;53.084;6.960;2023-05-10T13:05:52;5.35;;;2.80;;
52386;SDS011;38317;53.084;6.960;2023-05-10T13:08:18;5.32;;;2.42;;
52386;SDS011;38317;53.084;6.960;2023-05-10T13:10:44;4.18;;;2.05;;
52386;SDS011;38317;53.084;6.960;2023-05-10T13:13:10;3.63;;;1.80;;
52386;SDS011;38317;53.084;6.960;2023-05-10T13:15:35;6.10;;;2.30;;
52386;SDS011;38317;53.084;6.960;2023-05-10T13:18:01;5.13;;;2.20;;
52386;SDS011;38317;53.084;6.960;2023-05-10T13:20:27;3.67;;;1.85;;
52386;SDS011;38317;53.084;6.960;2023-05-10T13:22:53;3.35;;;2.03;;
52386;SDS011;38317;53.084;6.960;2023-05-10T13:25:18;5.13;;;2.35;;
52386;SDS011;38317;53.084;6.960;2023-05-10T13:27:44;5.95;;;2.13;;
52386;SDS011;38317;53.084;6.960;2023-05-10T13:30:10;3.83;;;2.13;;
52386;SDS011;38317;53.084;6.960;2023-05-10T13:32:36;4.10;;;2.40;;
52386;SDS011;38317;53.084;6.960;2023-05-10T13:35:02;4.75;;;2.28;;
52386;SDS011;38317;53.084;6.960;2023-05-10T13:37:28;5.80;;;2.50;;
52386;SDS011;38317;53.084;6.960;2023-05-10T13:39:55;5.10;;;2.38;;
52386;SDS011;38317;53.084;6.960;2023-05-10T13:42:21;4.97;;;2.28;;
52386;SDS011;38317;53.084;6.960;2023-05-10T13:44:48;4.88;;;2.53;;
52386;SDS011;38317;53.084;6.960;2023-05-10T13:47:14;6.45;;;2.50;;
52386;SDS011;38317;53.084;6.960;2023-05-10T13:49:40;6.85;;;2.50;;
52386;SDS011;38317;53.084;6.960;2023-05-10T13:52:08;5.65;;;2.60;;
52386;SDS011;38317;53.084;6.960;2023-05-10T13:54:36;6.50;;;3.25;;
52386;SDS011;38317;53.084;6.960;2023-05-10T13:57:03;7.85;;;3.17;;
52386;SDS011;38317;53.084;6.960;2023-05-10T13:59:29;5.60;;;2.75;;
52386;SDS011;38317;53.084;6.960;2023-05-10T14:01:57;7.60;;;3.10;;
52386;SDS011;38317;53.084;6.960;2023-05-10T14:04:23;10.45;;;2.75;;
52386;SDS011;38317;53.084;6.960;2023-05-10T14:06:49;10.10;;;3.15;;
52386;SDS011;38317;53.084;6.960;2023-05-10T14:09:15;7.05;;;3.17;;
52386;SDS011;38317;53.084;6.960;2023-05-10T14:11:47;8.23;;;3.20;;
52386;SDS011;38317;53.084;6.960;2023-05-10T14:14:12;11.20;;;2.95;;
52386;SDS011;38317;53.084;6.960;2023-05-10T14:16:42;7.68;;;2.95;;
52386;SDS011;38317;53.084;6.960;2023-05-10T14:19:09;6.97;;;2.92;;
52386;SDS011;38317;53.084;6.960;2023-05-10T14:21:36;8.43;;;3.10;;
52386;SDS011;38317;53.084;6.960;2023-05-10T14:24:02;5.55;;;2.60;;
52386;SDS011;38317;53.084;6.960;2023-05-10T14:26:28;5.93;;;2.83;;
52386;SDS011;38317;53.084;6.960;2023-05-10T14:28:53;6.93;;;2.95;;
52386;SDS011;38317;53.084;6.960;2023-05-10T14:31:19;6.22;;;3.05;;
52386;SDS011;38317;53.084;6.960;2023-05-10T14:33:49;8.68;;;2.63;;
52386;SDS011;38317;53.084;6.960;2023-05-10T14:36:16;5.80;;;2.50;;
52386;SDS011;38317;53.084;6.960;2023-05-10T14:38:42;5.18;;;2.42;;
52386;SDS011;38317;53.084;6.960;2023-05-10T14:41:08;6.22;;;2.47;;
52386;SDS011;38317;53.084;6.960;2023-05-10T14:43:38;6.05;;;2.80;;
52386;SDS011;38317;53.084;6.960;2023-05-10T14:46:04;8.52;;;3.03;;
52386;SDS011;38317;53.084;6.960;2023-05-10T14:48:30;5.45;;;2.80;;
52386;SDS011;38317;53.084;6.960;2023-05-10T14:50:56;7.15;;;2.92;;
52386;SDS011;38317;53.084;6.960;2023-05-10T14:53:23;5.68;;;2.63;;
52386;SDS011;38317;53.084;6.960;2023-05-10T14:55:48;5.65;;;2.58;;
52386;SDS011;38317;53.084;6.960;2023-05-10T14:58:14;5.75;;;2.47;;
52386;SDS011;38317;53.084;6.960;2023-05-10T15:00:40;6.00;;;2.92;;
52386;SDS011;38317;53.084;6.960;2023-05-10T15:03:06;5.28;;;2.60;;
52386;SDS011;38317;53.084;6.960;2023-05-10T15:05:31;5.45;;;2.60;;
52386;SDS011;38317;53.084;6.960;2023-05-10T15:07:57;9.60;;;3.92;;
52386;SDS011;38317;53.084;6.960;2023-05-10T15:10:23;9.15;;;3.17;;
52386;SDS011;38317;53.084;6.960;2023-05-10T15:12:49;8.75;;;3.53;;
52386;SDS011;38317;53.084;6.960;2023-05-10T15:15:15;7.88;;;3.70;;
52386;SDS011;38317;53.084;6.960;2023-05-10T15:17:41;7.68;;;3.70;;
52386;SDS011;38317;53.084;6.960;2023-05-10T15:20:07;9.23;;;3.33;;
52386;SDS011;38317;53.084;6.960;2023-05-10T15:22:33;7.38;;;3.10;;
52386;SDS011;38317;53.084;6.960;2023-05-10T15:24:58;6.93;;;3.38;;
52386;SDS011;38317;53.084;6.960;2023-05-10T15:27:25;8.15;;;3.60;;